sensor_id;sensor_type;location;lat;lon;timestamp;temperature;humidity
18948;DHT22;9607;51.600;7.558;2023-02-01T00:02:03;5.40;99.90
18948;DHT22;9607;51.600;7.558;2023-02-01T00:04:30;5.40;99.90
18948;DHT22;9607;51.600;7.558;2023-02-01T00:06:57;5.40;99.90
18948;DHT22;9607;51.600;7.558;2023-02-01T00:09:24;5.50;99.90
18948;DHT22;9607;51.600;7.558;2023-02-01T00:11:53;5.50;99.90
18948;DHT22;9607;51.600;7.558;2023-02-01T00:14:21;5.60;99.90
18948;DHT22;9607;51.600;7.558;2023-02-01T00:16:48;5.60;99.90
18948;DHT22;9607;51.600;7.558;2023-02-01T00:19:15;5.70;99.90
18948;DHT22;9607;51.600;7.558;2023-02-01T00:21:42;5.70;99.90
18948;DHT22;9607;51.600;7.558;2023-02-01T00:24:10;5.80;99.90
18948;DHT22;9607;51.600;7.558;2023-02-01T00:26:39;5.70;99.90
18948;DHT22;9607;51.600;7.558;2023-02-01T00:29:11;5.80;99.90
18948;DHT22;9607;51.600;7.558;2023-02-01T00:31:38;5.80;99.90
18948;DHT22;9607;51.600;7.558;2023-02-01T00:34:05;5.90;99.90
18948;DHT22;9607;51.600;7.558;2023-02-01T00:36:32;5.90;99.90
18948;DHT22;9607;51.600;7.558;2023-02-01T00:38:59;5.90;99.90
18948;DHT22;9607;51.600;7.558;2023-02-01T00:41:26;5.90;99.90
18948;DHT22;9607;51.600;7.558;2023-02-01T00:43:53;6.00;99.90
18948;DHT22;9607;51.600;7.558;2023-02-01T00:46:21;6.00;99.90
18948;DHT22;9607;51.600;7.558;2023-02-01T00:48:49;6.00;99.90
18948;DHT22;9607;51.600;7.558;2023-02-01T00:51:18;6.00;99.90
18948;DHT22;9607;51.600;7.558;2023-02-01T00:53:46;6.00;99.90
18948;DHT22;9607;51.600;7.558;2023-02-01T00:56:13;6.00;99.90
18948;DHT22;9607;51.600;7.558;2023-02-01T00:58:40;6.10;99.90
18948;DHT22;9607;51.600;7.558;2023-02-01T01:01:09;6.10;99.90
18948;DHT22;9607;51.600;7.558;2023-02-01T01:03:39;6.10;99.90
18948;DHT22;9607;51.600;7.558;2023-02-01T01:06:08;6.10;99.90
18948;DHT22;9607;51.600;7.558;2023-02-01T01:08:36;6.10;99.90
18948;DHT22;9607;51.600;7.558;2023-02-01T01:11:07;6.10;99.90
18948;DHT22;9607;51.600;7.558;2023-02-01T01:13:34;6.10;99.90
18948;DHT22;9607;51.600;7.558;2023-02-01T01:16:02;6.10;99.90
18948;DHT22;9607;51.600;7.558;2023-02-01T01:18:29;6.10;99.90
18948;DHT22;9607;51.600;7.558;2023-02-01T01:20:58;6.10;99.90
18948;DHT22;9607;51.600;7.558;2023-02-01T01:23:27;6.10;99.90
18948;DHT22;9607;51.600;7.558;2023-02-01T01:25:54;6.10;99.90
18948;DHT22;9607;51.600;7.558;2023-02-01T01:28:21;6.10;99.90
18948;DHT22;9607;51.600;7.558;2023-02-01T01:30:48;6.10;99.90
18948;DHT22;9607;51.600;7.558;2023-02-01T01:33:14;6.20;99.90
18948;DHT22;9607;51.600;7.558;2023-02-01T01:35:41;6.20;99.90
18948;DHT22;9607;51.600;7.558;2023-02-01T01:38:10;6.20;99.90
18948;DHT22;9607;51.600;7.558;2023-02-01T01:40:38;6.20;99.90
18948;DHT22;9607;51.600;7.558;2023-02-01T01:43:13;6.20;99.90
18948;DHT22;9607;51.600;7.558;2023-02-01T01:45:40;6.20;99.90
18948;DHT22;9607;51.600;7.558;2023-02-01T01:48:11;6.10;99.90
18948;DHT22;9607;51.600;7.558;2023-02-01T01:50:44;6.10;99.90
18948;DHT22;9607;51.600;7.558;2023-02-01T01:53:18;6.10;99.90
18948;DHT22;9607;51.600;7.558;2023-02-01T01:55:46;6.10;99.90
18948;DHT22;9607;51.600;7.558;2023-02-01T01:58:16;6.10;99.90
18948;DHT22;9607;51.600;7.558;2023-02-01T02:00:44;6.10;99.90
18948;DHT22;9607;51.600;7.558;2023-02-01T02:03:15;6.10;99.90
18948;DHT22;9607;51.600;7.558;2023-02-01T02:05:42;6.10;99.90
18948;DHT22;9607;51.600;7.558;2023-02-01T02:08:09;6.10;99.90
18948;DHT22;9607;51.600;7.558;2023-02-01T02:10:38;6.00;99.90
18948;DHT22;9607;51.600;7.558;2023-02-01T02:13:23;6.10;99.90
18948;DHT22;9607;51.600;7.558;2023-02-01T02:16:10;6.10;99.90
18948;DHT22;9607;51.600;7.558;2023-02-01T02:18:46;6.10;99.90
18948;DHT22;9607;51.600;7.558;2023-02-01T02:21:18;6.10;99.90
18948;DHT22;9607;51.600;7.558;2023-02-01T02:24:14;6.10;99.90
18948;DHT22;9607;51.600;7.558;2023-02-01T02:26:56;6.10;99.90
18948;DHT22;9607;51.600;7.558;2023-02-01T02:29:46;6.10;99.90
18948;DHT22;9607;51.600;7.558;2023-02-01T02:32:52;6.20;99.90
18948;DHT22;9607;51.600;7.558;2023-02-01T02:35:29;6.20;99.90
18948;DHT22;9607;51.600;7.558;2023-02-01T02:38:03;6.20;99.90
18948;DHT22;9607;51.600;7.558;2023-02-01T02:40:37;6.20;99.90
18948;DHT22;9607;51.600;7.558;2023-02-01T02:43:13;6.10;99.90
18948;DHT22;9607;51.600;7.558;2023-02-01T02:46:05;6.20;99.90
18948;DHT22;9607;51.600;7.558;2023-02-01T02:48:55;6.20;99.90
18948;DHT22;9607;51.600;7.558;2023-02-01T02:51:28;6.30;99.90
18948;DHT22;9607;51.600;7.558;2023-02-01T02:54:15;6.30;99.90
18948;DHT22;9607;51.600;7.558;2023-02-01T02:57:03;6.20;99.90
18948;DHT22;9607;51.600;7.558;2023-02-01T02:59:50;6.20;99.90
18948;DHT22;9607;51.600;7.558;2023-02-01T03:02:35;6.20;99.90
18948;DHT22;9607;51.600;7.558;2023-02-01T03:05:21;6.20;99.90
18948;DHT22;9607;51.600;7.558;2023-02-01T03:08:00;6.10;99.90
18948;DHT22;9607;51.600;7.558;2023-02-01T03:10:42;6.20;99.90
18948;DHT22;9607;51.600;7.558;2023-02-01T03:13:13;6.20;99.90
18948;DHT22;9607;51.600;7.558;2023-02-01T03:15:45;6.20;99.90
18948;DHT22;9607;51.600;7.558;2023-02-01T03:18:18;6.20;99.90
18948;DHT22;9607;51.600;7.558;2023-02-01T03:20:48;6.20;99.90
18948;DHT22;9607;51.600;7.558;2023-02-01T03:23:21;6.20;99.90
18948;DHT22;9607;51.600;7.558;2023-02-01T03:25:51;6.20;99.90
18948;DHT22;9607;51.600;7.558;2023-02-01T03:28:23;6.20;99.90
18948;DHT22;9607;51.600;7.558;2023-02-01T03:30:52;6.20;99.90
18948;DHT22;9607;51.600;7.558;2023-02-01T03:33:21;6.20;99.90
18948;DHT22;9607;51.600;7.558;2023-02-01T03:35:56;6.20;99.90
18948;DHT22;9607;51.600;7.558;2023-02-01T03:38:29;6.20;99.90
18948;DHT22;9607;51.600;7.558;2023-02-01T03:41:03;6.20;99.90
18948;DHT22;9607;51.600;7.558;2023-02-01T03:43:37;6.30;99.90
18948;DHT22;9607;51.600;7.558;2023-02-01T03:46:11;6.20;99.90
18948;DHT22;9607;51.600;7.558;2023-02-01T03:48:40;6.20;99.90
18948;DHT22;9607;51.600;7.558;2023-02-01T03:51:08;6.30;99.90
18948;DHT22;9607;51.600;7.558;2023-02-01T03:53:39;6.30;99.90
18948;DHT22;9607;51.600;7.558;2023-02-01T03:56:06;6.30;99.90
18948;DHT22;9607;51.600;7.558;2023-02-01T03:58:37;6.20;99.90
18948;DHT22;9607;51.600;7.558;2023-02-01T04:01:04;6.20;99.90
18948;DHT22;9607;51.600;7.558;2023-02-01T04:03:31;6.20;99.90
18948;DHT22;9607;51.600;7.558;2023-02-01T04:05:58;6.20;99.90
18948;DHT22;9607;51.600;7.558;2023-02-01T04:08:26;6.20;99.90
18948;DHT22;9607;51.600;7.558;2023-02-01T04:10:54;6.20;99.90
18948;DHT22;9607;51.600;7.558;2023-02-01T04:13:21;6.20;99.90
18948;DHT22;9607;51.600;7.558;2023-02-01T04:15:48;6.20;99.90
18948;DHT22;9607;51.600;7.558;2023-02-01T04:18:16;6.20;99.90
18948;DHT22;9607;51.600;7.558;2023-02-01T04:20:43;6.20;99.90
18948;DHT22;9607;51.600;7.558;2023-02-01T04:23:10;6.20;99.90
18948;DHT22;9607;51.600;7.558;2023-02-01T04:25:37;6.20;99.90
18948;DHT22;9607;51.600;7.558;2023-02-01T04:28:05;6.30;99.90
18948;DHT22;9607;51.600;7.558;2023-02-01T04:30:32;6.30;99.90
18948;DHT22;9607;51.600;7.558;2023-02-01T04:32:59;6.30;99.90
18948;DHT22;9607;51.600;7.558;2023-02-01T04:35:29;6.20;99.90
18948;DHT22;9607;51.600;7.558;2023-02-01T04:37:56;6.20;99.90
18948;DHT22;9607;51.600;7.558;2023-02-01T04:40:23;6.20;99.90
18948;DHT22;9607;51.600;7.558;2023-02-01T04:42:49;6.20;99.90
18948;DHT22;9607;51.600;7.558;2023-02-01T04:45:18;6.20;99.90
18948;DHT22;9607;51.600;7.558;2023-02-01T04:47:44;6.20;99.90
18948;DHT22;9607;51.600;7.558;2023-02-01T04:50:11;6.20;99.90
18948;DHT22;9607;51.600;7.558;2023-02-01T04:52:38;6.20;99.90
18948;DHT22;9607;51.600;7.558;2023-02-01T04:55:06;6.20;99.90
18948;DHT22;9607;51.600;7.558;2023-02-01T04:57:33;6.20;99.90
18948;DHT22;9607;51.600;7.558;2023-02-01T04:59:59;6.30;99.90
18948;DHT22;9607;51.600;7.558;2023-02-01T05:02:28;6.20;99.90
18948;DHT22;9607;51.600;7.558;2023-02-01T05:04:54;6.30;99.90
18948;DHT22;9607;51.600;7.558;2023-02-01T05:07:21;6.30;99.90
18948;DHT22;9607;51.600;7.558;2023-02-01T05:09:48;6.30;99.90
18948;DHT22;9607;51.600;7.558;2023-02-01T05:12:15;6.30;99.90
18948;DHT22;9607;51.600;7.558;2023-02-01T05:14:59;6.30;99.90
18948;DHT22;9607;51.600;7.558;2023-02-01T05:17:27;6.30;99.90
18948;DHT22;9607;51.600;7.558;2023-02-01T05:19:54;6.30;99.90
18948;DHT22;9607;51.600;7.558;2023-02-01T05:22:21;6.30;99.90
18948;DHT22;9607;51.600;7.558;2023-02-01T05:24:47;6.40;99.90
18948;DHT22;9607;51.600;7.558;2023-02-01T05:27:14;6.30;99.90
18948;DHT22;9607;51.600;7.558;2023-02-01T05:29:41;6.30;99.90
18948;DHT22;9607;51.600;7.558;2023-02-01T05:32:09;6.30;99.90
18948;DHT22;9607;51.600;7.558;2023-02-01T05:34:38;6.30;99.90
18948;DHT22;9607;51.600;7.558;2023-02-01T05:37:04;6.30;99.90
18948;DHT22;9607;51.600;7.558;2023-02-01T05:39:32;6.30;99.90
18948;DHT22;9607;51.600;7.558;2023-02-01T05:41:58;6.40;99.90
18948;DHT22;9607;51.600;7.558;2023-02-01T05:44:25;6.30;99.90
18948;DHT22;9607;51.600;7.558;2023-02-01T05:46:52;6.30;99.90
18948;DHT22;9607;51.600;7.558;2023-02-01T05:49:19;6.30;99.90
18948;DHT22;9607;51.600;7.558;2023-02-01T05:51:47;6.30;99.90
18948;DHT22;9607;51.600;7.558;2023-02-01T05:54:13;6.30;99.90
18948;DHT22;9607;51.600;7.558;2023-02-01T05:56:40;6.30;99.90
18948;DHT22;9607;51.600;7.558;2023-02-01T05:59:07;6.30;99.90
18948;DHT22;9607;51.600;7.558;2023-02-01T06:01:35;6.30;99.90
18948;DHT22;9607;51.600;7.558;2023-02-01T06:04:01;6.30;99.90
18948;DHT22;9607;51.600;7.558;2023-02-01T06:06:28;6.20;99.90
18948;DHT22;9607;51.600;7.558;2023-02-01T06:08:57;6.20;99.90
18948;DHT22;9607;51.600;7.558;2023-02-01T06:11:24;6.20;99.90
18948;DHT22;9607;51.600;7.558;2023-02-01T06:13:51;6.20;99.90
18948;DHT22;9607;51.600;7.558;2023-02-01T06:16:18;6.30;99.90
18948;DHT22;9607;51.600;7.558;2023-02-01T06:18:45;6.30;99.90
18948;DHT22;9607;51.600;7.558;2023-02-01T06:21:11;6.30;99.90
18948;DHT22;9607;51.600;7.558;2023-02-01T06:23:41;6.30;99.90
18948;DHT22;9607;51.600;7.558;2023-02-01T06:26:10;6.30;99.90
18948;DHT22;9607;51.600;7.558;2023-02-01T06:28:37;6.30;99.90
18948;DHT22;9607;51.600;7.558;2023-02-01T06:31:07;6.30;99.90
18948;DHT22;9607;51.600;7.558;2023-02-01T06:33:34;6.30;99.90
18948;DHT22;9607;51.600;7.558;2023-02-01T06:36:02;6.30;99.90
18948;DHT22;9607;51.600;7.558;2023-02-01T06:38:29;6.30;99.90
18948;DHT22;9607;51.600;7.558;2023-02-01T06:41:00;6.20;99.90
18948;DHT22;9607;51.600;7.558;2023-02-01T06:43:29;6.10;99.90
18948;DHT22;9607;51.600;7.558;2023-02-01T06:46:00;6.00;99.90
18948;DHT22;9607;51.600;7.558;2023-02-01T06:48:27;6.00;99.90
18948;DHT22;9607;51.600;7.558;2023-02-01T06:50:54;6.00;99.90
18948;DHT22;9607;51.600;7.558;2023-02-01T06:53:21;6.00;99.90
18948;DHT22;9607;51.600;7.558;2023-02-01T06:55:52;6.00;99.90
18948;DHT22;9607;51.600;7.558;2023-02-01T06:58:19;6.00;99.90
18948;DHT22;9607;51.600;7.558;2023-02-01T07:00:47;6.00;99.90
18948;DHT22;9607;51.600;7.558;2023-02-01T07:03:14;6.00;99.90
18948;DHT22;9607;51.600;7.558;2023-02-01T07:05:41;6.00;99.90
18948;DHT22;9607;51.600;7.558;2023-02-01T07:08:08;6.00;99.90
18948;DHT22;9607;51.600;7.558;2023-02-01T07:10:35;6.00;99.90
18948;DHT22;9607;51.600;7.558;2023-02-01T07:13:01;6.00;99.90
18948;DHT22;9607;51.600;7.558;2023-02-01T07:15:28;6.00;99.90
18948;DHT22;9607;51.600;7.558;2023-02-01T07:17:57;6.00;99.90
18948;DHT22;9607;51.600;7.558;2023-02-01T07:20:23;6.10;99.90
18948;DHT22;9607;51.600;7.558;2023-02-01T07:22:54;6.10;99.90
18948;DHT22;9607;51.600;7.558;2023-02-01T07:25:21;6.10;99.90
18948;DHT22;9607;51.600;7.558;2023-02-01T07:27:48;6.10;99.90
18948;DHT22;9607;51.600;7.558;2023-02-01T07:30:15;6.20;99.90
18948;DHT22;9607;51.600;7.558;2023-02-01T07:32:42;6.30;99.90
18948;DHT22;9607;51.600;7.558;2023-02-01T07:35:10;6.20;99.90
18948;DHT22;9607;51.600;7.558;2023-02-01T07:37:37;6.20;99.90
18948;DHT22;9607;51.600;7.558;2023-02-01T07:40:05;6.30;99.90
18948;DHT22;9607;51.600;7.558;2023-02-01T07:42:35;6.30;99.90
18948;DHT22;9607;51.600;7.558;2023-02-01T07:45:02;6.30;99.90
18948;DHT22;9607;51.600;7.558;2023-02-01T07:47:29;6.30;99.90
18948;DHT22;9607;51.600;7.558;2023-02-01T07:49:56;6.30;99.90
18948;DHT22;9607;51.600;7.558;2023-02-01T07:52:24;6.30;99.90
18948;DHT22;9607;51.600;7.558;2023-02-01T07:54:53;6.30;99.90
18948;DHT22;9607;51.600;7.558;2023-02-01T07:57:20;6.40;99.90
18948;DHT22;9607;51.600;7.558;2023-02-01T07:59:47;6.40;99.90
18948;DHT22;9607;51.600;7.558;2023-02-01T08:02:31;6.40;99.90
18948;DHT22;9607;51.600;7.558;2023-02-01T08:05:00;6.40;99.90
18948;DHT22;9607;51.600;7.558;2023-02-01T08:07:28;6.40;99.90
18948;DHT22;9607;51.600;7.558;2023-02-01T08:09:55;6.50;99.90
18948;DHT22;9607;51.600;7.558;2023-02-01T08:12:22;6.40;99.90
18948;DHT22;9607;51.600;7.558;2023-02-01T08:14:49;6.50;99.90
18948;DHT22;9607;51.600;7.558;2023-02-01T08:17:16;6.50;99.90
18948;DHT22;9607;51.600;7.558;2023-02-01T08:19:42;6.50;99.90
18948;DHT22;9607;51.600;7.558;2023-02-01T08:22:09;6.50;99.90
18948;DHT22;9607;51.600;7.558;2023-02-01T08:24:38;6.40;99.90
18948;DHT22;9607;51.600;7.558;2023-02-01T08:27:07;6.50;99.90
18948;DHT22;9607;51.600;7.558;2023-02-01T08:29:37;6.40;99.90
18948;DHT22;9607;51.600;7.558;2023-02-01T08:32:04;6.50;99.90
18948;DHT22;9607;51.600;7.558;2023-02-01T08:34:31;6.50;99.90
18948;DHT22;9607;51.600;7.558;2023-02-01T08:36:57;6.40;99.90
18948;DHT22;9607;51.600;7.558;2023-02-01T08:39:25;6.50;99.90
18948;DHT22;9607;51.600;7.558;2023-02-01T08:41:53;6.50;99.90
18948;DHT22;9607;51.600;7.558;2023-02-01T08:44:36;6.50;99.90
18948;DHT22;9607;51.600;7.558;2023-02-01T08:47:04;6.50;99.90
18948;DHT22;9607;51.600;7.558;2023-02-01T08:49:31;6.50;99.90
18948;DHT22;9607;51.600;7.558;2023-02-01T08:51:57;6.60;99.90
18948;DHT22;9607;51.600;7.558;2023-02-01T08:54:24;6.60;99.90
18948;DHT22;9607;51.600;7.558;2023-02-01T08:56:52;6.60;99.90
18948;DHT22;9607;51.600;7.558;2023-02-01T08:59:20;6.60;99.90
18948;DHT22;9607;51.600;7.558;2023-02-01T09:01:47;6.60;99.90
18948;DHT22;9607;51.600;7.558;2023-02-01T09:04:13;6.60;99.90
18948;DHT22;9607;51.600;7.558;2023-02-01T09:06:41;6.60;99.90
18948;DHT22;9607;51.600;7.558;2023-02-01T09:09:07;6.60;99.90
18948;DHT22;9607;51.600;7.558;2023-02-01T09:11:35;6.60;99.90
18948;DHT22;9607;51.600;7.558;2023-02-01T09:14:03;6.60;99.90
18948;DHT22;9607;51.600;7.558;2023-02-01T09:16:30;6.60;99.90
18948;DHT22;9607;51.600;7.558;2023-02-01T09:18:57;6.60;99.90
18948;DHT22;9607;51.600;7.558;2023-02-01T09:21:23;6.70;99.90
18948;DHT22;9607;51.600;7.558;2023-02-01T09:23:51;6.70;99.90
18948;DHT22;9607;51.600;7.558;2023-02-01T09:26:18;6.80;99.90
18948;DHT22;9607;51.600;7.558;2023-02-01T09:28:44;6.80;99.90
18948;DHT22;9607;51.600;7.558;2023-02-01T09:31:12;6.80;99.90
18948;DHT22;9607;51.600;7.558;2023-02-01T09:33:39;6.90;99.90
18948;DHT22;9607;51.600;7.558;2023-02-01T09:36:07;6.90;99.90
18948;DHT22;9607;51.600;7.558;2023-02-01T09:38:33;6.90;99.90
18948;DHT22;9607;51.600;7.558;2023-02-01T09:41:10;7.00;99.90
18948;DHT22;9607;51.600;7.558;2023-02-01T09:43:48;7.00;99.90
18948;DHT22;9607;51.600;7.558;2023-02-01T09:46:23;7.00;99.90
18948;DHT22;9607;51.600;7.558;2023-02-01T09:48:53;7.00;99.90
18948;DHT22;9607;51.600;7.558;2023-02-01T09:51:23;6.90;99.90
18948;DHT22;9607;51.600;7.558;2023-02-01T09:53:59;6.90;99.90
18948;DHT22;9607;51.600;7.558;2023-02-01T09:56:34;7.00;99.90
18948;DHT22;9607;51.600;7.558;2023-02-01T09:59:08;7.00;99.90
18948;DHT22;9607;51.600;7.558;2023-02-01T10:01:38;7.00;99.90
18948;DHT22;9607;51.600;7.558;2023-02-01T10:04:07;7.10;99.90
18948;DHT22;9607;51.600;7.558;2023-02-01T10:06:51;7.10;99.90
18948;DHT22;9607;51.600;7.558;2023-02-01T10:09:33;7.20;99.90
18948;DHT22;9607;51.600;7.558;2023-02-01T10:15:18;7.20;99.90
18948;DHT22;9607;51.600;7.558;2023-02-01T10:18:02;7.20;99.90
18948;DHT22;9607;51.600;7.558;2023-02-01T10:20:41;7.20;99.90
18948;DHT22;9607;51.600;7.558;2023-02-01T10:23:19;7.20;99.90
18948;DHT22;9607;51.600;7.558;2023-02-01T10:25:54;7.30;99.90
18948;DHT22;9607;51.600;7.558;2023-02-01T10:28:21;7.20;99.90
18948;DHT22;9607;51.600;7.558;2023-02-01T10:30:53;7.20;99.90
18948;DHT22;9607;51.600;7.558;2023-02-01T10:33:25;7.20;99.90
18948;DHT22;9607;51.600;7.558;2023-02-01T10:35:55;7.20;99.90
18948;DHT22;9607;51.600;7.558;2023-02-01T10:38:27;7.20;99.90
18948;DHT22;9607;51.600;7.558;2023-02-01T10:40:57;7.20;99.90
18948;DHT22;9607;51.600;7.558;2023-02-01T10:43:26;7.30;99.90
18948;DHT22;9607;51.600;7.558;2023-02-01T10:45:53;7.30;99.90
18948;DHT22;9607;51.600;7.558;2023-02-01T10:48:20;7.20;99.90
18948;DHT22;9607;51.600;7.558;2023-02-01T10:50:53;7.20;99.90
18948;DHT22;9607;51.600;7.558;2023-02-01T10:53:25;7.20;99.90
18948;DHT22;9607;51.600;7.558;2023-02-01T10:55:54;7.20;99.90
18948;DHT22;9607;51.600;7.558;2023-02-01T10:58:26;7.10;99.90
18948;DHT22;9607;51.600;7.558;2023-02-01T11:00:56;7.10;99.90
18948;DHT22;9607;51.600;7.558;2023-02-01T11:03:41;7.10;99.90
18948;DHT22;9607;51.600;7.558;2023-02-01T11:06:19;7.10;99.90
18948;DHT22;9607;51.600;7.558;2023-02-01T11:08:49;7.10;99.90
18948;DHT22;9607;51.600;7.558;2023-02-01T11:11:17;7.10;99.90
18948;DHT22;9607;51.600;7.558;2023-02-01T11:13:52;7.20;99.90
18948;DHT22;9607;51.600;7.558;2023-02-01T11:16:19;7.30;99.90
18948;DHT22;9607;51.600;7.558;2023-02-01T11:18:53;7.30;99.90
18948;DHT22;9607;51.600;7.558;2023-02-01T11:21:22;7.30;99.90
18948;DHT22;9607;51.600;7.558;2023-02-01T11:23:49;7.30;99.90
18948;DHT22;9607;51.600;7.558;2023-02-01T11:26:21;7.30;99.90
18948;DHT22;9607;51.600;7.558;2023-02-01T11:28:53;7.20;99.90
18948;DHT22;9607;51.600;7.558;2023-02-01T11:31:21;7.20;99.90
18948;DHT22;9607;51.600;7.558;2023-02-01T11:33:51;7.20;99.90
18948;DHT22;9607;51.600;7.558;2023-02-01T11:36:23;7.10;99.90
18948;DHT22;9607;51.600;7.558;2023-02-01T11:38:54;7.10;99.90
18948;DHT22;9607;51.600;7.558;2023-02-01T11:41:23;7.20;99.90
18948;DHT22;9607;51.600;7.558;2023-02-01T11:43:56;7.30;99.90
18948;DHT22;9607;51.600;7.558;2023-02-01T11:46:28;7.40;99.90
18948;DHT22;9607;51.600;7.558;2023-02-01T11:48:56;7.50;99.90
18948;DHT22;9607;51.600;7.558;2023-02-01T11:51:42;7.50;99.90
18948;DHT22;9607;51.600;7.558;2023-02-01T11:54:32;7.60;99.90
18948;DHT22;9607;51.600;7.558;2023-02-01T11:57:09;7.60;99.90
18948;DHT22;9607;51.600;7.558;2023-02-01T11:59:52;7.60;99.90
18948;DHT22;9607;51.600;7.558;2023-02-01T12:02:43;7.60;99.90
18948;DHT22;9607;51.600;7.558;2023-02-01T12:05:22;7.50;99.90
18948;DHT22;9607;51.600;7.558;2023-02-01T12:08:13;7.40;99.90
18948;DHT22;9607;51.600;7.558;2023-02-01T12:10:51;7.20;99.90
18948;DHT22;9607;51.600;7.558;2023-02-01T12:13:35;6.90;99.90
18948;DHT22;9607;51.600;7.558;2023-02-01T12:16:16;6.70;99.90
18948;DHT22;9607;51.600;7.558;2023-02-01T12:21:57;6.30;99.90
18948;DHT22;9607;51.600;7.558;2023-02-01T12:24:46;6.20;99.90
18948;DHT22;9607;51.600;7.558;2023-02-01T12:27:42;6.10;99.90
18948;DHT22;9607;51.600;7.558;2023-02-01T12:30:28;6.00;99.90
18948;DHT22;9607;51.600;7.558;2023-02-01T12:33:06;6.00;99.90
18948;DHT22;9607;51.600;7.558;2023-02-01T12:35:47;6.00;99.90
18948;DHT22;9607;51.600;7.558;2023-02-01T12:38:41;5.90;99.90
18948;DHT22;9607;51.600;7.558;2023-02-01T12:41:33;5.90;99.90
18948;DHT22;9607;51.600;7.558;2023-02-01T12:44:04;5.90;99.90
18948;DHT22;9607;51.600;7.558;2023-02-01T12:46:39;5.90;99.90
18948;DHT22;9607;51.600;7.558;2023-02-01T12:49:13;5.90;99.90
18948;DHT22;9607;51.600;7.558;2023-02-01T12:51:44;6.00;99.90
18948;DHT22;9607;51.600;7.558;2023-02-01T12:54:21;6.00;99.90
18948;DHT22;9607;51.600;7.558;2023-02-01T12:56:55;6.00;99.90
18948;DHT22;9607;51.600;7.558;2023-02-01T12:59:27;6.10;99.90
18948;DHT22;9607;51.600;7.558;2023-02-01T13:01:58;6.10;99.90
18948;DHT22;9607;51.600;7.558;2023-02-01T13:04:30;6.10;99.90
18948;DHT22;9607;51.600;7.558;2023-02-01T13:07:04;6.10;99.90
18948;DHT22;9607;51.600;7.558;2023-02-01T13:09:37;6.20;99.90
18948;DHT22;9607;51.600;7.558;2023-02-01T13:12:11;6.20;99.90
18948;DHT22;9607;51.600;7.558;2023-02-01T13:14:42;6.20;99.90
18948;DHT22;9607;51.600;7.558;2023-02-01T13:17:14;6.10;99.90
18948;DHT22;9607;51.600;7.558;2023-02-01T13:19:47;6.20;99.90
18948;DHT22;9607;51.600;7.558;2023-02-01T13:22:20;6.20;99.90
18948;DHT22;9607;51.600;7.558;2023-02-01T13:24:50;6.20;99.90
18948;DHT22;9607;51.600;7.558;2023-02-01T13:27:19;6.20;99.90
18948;DHT22;9607;51.600;7.558;2023-02-01T13:29:53;6.20;99.90
18948;DHT22;9607;51.600;7.558;2023-02-01T13:32:39;6.20;99.90
18948;DHT22;9607;51.600;7.558;2023-02-01T13:38:18;6.30;99.90
18948;DHT22;9607;51.600;7.558;2023-02-01T13:40:51;6.30;99.90
18948;DHT22;9607;51.600;7.558;2023-02-01T13:43:27;6.40;99.90
18948;DHT22;9607;51.600;7.558;2023-02-01T13:46:02;6.40;99.90
18948;DHT22;9607;51.600;7.558;2023-02-01T13:48:38;6.40;99.90
18948;DHT22;9607;51.600;7.558;2023-02-01T13:51:05;6.50;99.90
18948;DHT22;9607;51.600;7.558;2023-02-01T13:53:35;6.50;99.90
18948;DHT22;9607;51.600;7.558;2023-02-01T13:56:04;6.60;99.90
18948;DHT22;9607;51.600;7.558;2023-02-01T13:58:37;6.60;99.90
18948;DHT22;9607;51.600;7.558;2023-02-01T14:01:33;6.70;99.90
18948;DHT22;9607;51.600;7.558;2023-02-01T14:04:02;6.80;99.90
18948;DHT22;9607;51.600;7.558;2023-02-01T14:09:31;7.00;99.90
18948;DHT22;9607;51.600;7.558;2023-02-01T14:15:24;7.10;99.90
18948;DHT22;9607;51.600;7.558;2023-02-01T14:17:51;7.30;99.90
18948;DHT22;9607;51.600;7.558;2023-02-01T14:20:46;7.30;99.90
18948;DHT22;9607;51.600;7.558;2023-02-01T14:23:21;7.30;99.90
18948;DHT22;9607;51.600;7.558;2023-02-01T14:26:11;7.30;99.90
18948;DHT22;9607;51.600;7.558;2023-02-01T14:28:45;7.30;99.90
18948;DHT22;9607;51.600;7.558;2023-02-01T14:34:00;7.10;99.90
18948;DHT22;9607;51.600;7.558;2023-02-01T14:36:40;6.90;99.90
18948;DHT22;9607;51.600;7.558;2023-02-01T14:39:24;6.90;99.90
18948;DHT22;9607;51.600;7.558;2023-02-01T14:41:55;6.70;99.90
18948;DHT22;9607;51.600;7.558;2023-02-01T14:44:27;6.70;99.90
18948;DHT22;9607;51.600;7.558;2023-02-01T14:49:54;6.70;99.90
18948;DHT22;9607;51.600;7.558;2023-02-01T14:52:28;6.70;99.90
18948;DHT22;9607;51.600;7.558;2023-02-01T14:54:59;6.80;99.90
18948;DHT22;9607;51.600;7.558;2023-02-01T14:57:28;6.80;99.90
18948;DHT22;9607;51.600;7.558;2023-02-01T15:00:01;6.90;99.90
18948;DHT22;9607;51.600;7.558;2023-02-01T15:02:35;6.90;99.90
18948;DHT22;9607;51.600;7.558;2023-02-01T15:05:23;6.90;99.90
18948;DHT22;9607;51.600;7.558;2023-02-01T15:07:51;7.00;99.90
18948;DHT22;9607;51.600;7.558;2023-02-01T15:10:21;7.00;99.90
18948;DHT22;9607;51.600;7.558;2023-02-01T15:12:48;7.00;99.90
18948;DHT22;9607;51.600;7.558;2023-02-01T15:15:18;7.00;99.90
18948;DHT22;9607;51.600;7.558;2023-02-01T15:17:54;7.10;99.90
18948;DHT22;9607;51.600;7.558;2023-02-01T15:20:22;7.10;99.90
18948;DHT22;9607;51.600;7.558;2023-02-01T15:22:54;7.10;99.90
18948;DHT22;9607;51.600;7.558;2023-02-01T15:25:23;7.10;99.90
18948;DHT22;9607;51.600;7.558;2023-02-01T15:27:51;7.20;99.90
18948;DHT22;9607;51.600;7.558;2023-02-01T15:30:19;7.20;99.90
18948;DHT22;9607;51.600;7.558;2023-02-01T15:32:47;7.20;99.90
18948;DHT22;9607;51.600;7.558;2023-02-01T15:35:36;7.20;99.90
18948;DHT22;9607;51.600;7.558;2023-02-01T15:38:39;7.30;99.90
18948;DHT22;9607;51.600;7.558;2023-02-01T15:41:10;7.30;99.90
18948;DHT22;9607;51.600;7.558;2023-02-01T15:43:47;7.20;99.90
18948;DHT22;9607;51.600;7.558;2023-02-01T15:46:21;7.20;99.90
18948;DHT22;9607;51.600;7.558;2023-02-01T15:48:50;7.20;99.90
18948;DHT22;9607;51.600;7.558;2023-02-01T15:51:21;7.20;99.90
18948;DHT22;9607;51.600;7.558;2023-02-01T15:53:51;7.20;99.90
18948;DHT22;9607;51.600;7.558;2023-02-01T15:56:26;7.20;99.90
18948;DHT22;9607;51.600;7.558;2023-02-01T15:58:55;7.20;99.90
18948;DHT22;9607;51.600;7.558;2023-02-01T16:01:23;7.20;99.90
18948;DHT22;9607;51.600;7.558;2023-02-01T16:04:02;7.20;99.90
18948;DHT22;9607;51.600;7.558;2023-02-01T16:06:31;7.10;99.90
18948;DHT22;9607;51.600;7.558;2023-02-01T16:09:05;7.00;99.90
18948;DHT22;9607;51.600;7.558;2023-02-01T16:11:41;6.90;99.90
18948;DHT22;9607;51.600;7.558;2023-02-01T16:14:08;6.80;99.90
18948;DHT22;9607;51.600;7.558;2023-02-01T16:16:35;6.70;99.90
18948;DHT22;9607;51.600;7.558;2023-02-01T16:19:02;6.70;99.90
18948;DHT22;9607;51.600;7.558;2023-02-01T16:21:30;6.70;99.90
18948;DHT22;9607;51.600;7.558;2023-02-01T16:23:57;6.60;99.90
18948;DHT22;9607;51.600;7.558;2023-02-01T16:26:24;6.70;99.90
18948;DHT22;9607;51.600;7.558;2023-02-01T16:28:51;6.70;99.90
18948;DHT22;9607;51.600;7.558;2023-02-01T16:31:21;6.70;99.90
18948;DHT22;9607;51.600;7.558;2023-02-01T16:33:51;6.70;99.90
18948;DHT22;9607;51.600;7.558;2023-02-01T16:36:18;6.70;99.90
18948;DHT22;9607;51.600;7.558;2023-02-01T16:38:47;6.80;99.90
18948;DHT22;9607;51.600;7.558;2023-02-01T16:41:16;6.80;99.90
18948;DHT22;9607;51.600;7.558;2023-02-01T16:43:43;6.70;99.90
18948;DHT22;9607;51.600;7.558;2023-02-01T16:46:14;6.60;99.90
18948;DHT22;9607;51.600;7.558;2023-02-01T16:48:45;6.50;99.90
18948;DHT22;9607;51.600;7.558;2023-02-01T16:51:14;6.40;99.90